createdAt,value
2023-08-05T00:01:42.584Z,101839.84
2023-08-05T00:04:10.086Z,101841.34
2023-08-05T00:06:38.795Z,101835.13
2023-08-05T00:09:05.326Z,101834.78
2023-08-05T00:11:31.868Z,101835.34
2023-08-05T00:13:58.733Z,101839.72
2023-08-05T00:16:26.044Z,101836.97
2023-08-05T00:18:53.625Z,101838.09
2023-08-05T00:21:21.526Z,101835.66
2023-08-05T00:23:49.407Z,101835.22
2023-08-05T00:26:17.396Z,101828.41
2023-08-05T00:28:44.152Z,101825.19
2023-08-05T00:31:10.713Z,101819.16
2023-08-05T00:33:38.230Z,101820.31
2023-08-05T00:36:07.619Z,101824.91
2023-08-05T00:38:34.153Z,101826.25
2023-08-05T00:41:00.632Z,101812.75
2023-08-05T00:43:27.201Z,101816.47
2023-08-05T00:45:54.902Z,101808.97
2023-08-05T00:48:23.353Z,101808.84
2023-08-05T00:50:49.870Z,101796.81
2023-08-05T00:53:17.957Z,101795.88
2023-08-05T00:55:44.706Z,101795.06
2023-08-05T00:58:11.965Z,101794.59
2023-08-05T01:00:38.478Z,101791.84
2023-08-05T01:03:08.008Z,101786.31
2023-08-05T01:05:36.568Z,101784.34
2023-08-05T01:08:04.215Z,101779.16
2023-08-05T01:10:30.847Z,101777.91
2023-08-05T01:12:58.376Z,101776.72
2023-08-05T01:15:24.915Z,101772.38
2023-08-05T01:17:55.456Z,101773.34
2023-08-05T01:20:28.110Z,101778.25
2023-08-05T01:23:08.495Z,101775.16
2023-08-05T01:25:38.334Z,101777.44
2023-08-05T01:28:05.088Z,101777.44
2023-08-05T01:30:33.916Z,101772.06
2023-08-05T01:33:03.547Z,101768.00
2023-08-05T01:35:30.519Z,101776.63
2023-08-05T01:37:57.026Z,101769.97
2023-08-05T01:40:29.172Z,101769.16
2023-08-05T01:42:59.466Z,101771.91
2023-08-05T01:45:26.298Z,101768.00
2023-08-05T01:47:53.227Z,101767.53
2023-08-05T01:50:20.838Z,101768.06
2023-08-05T01:52:49.573Z,101766.78
2023-08-05T01:55:16.141Z,101769.88
2023-08-05T01:57:42.674Z,101765.16
2023-08-05T02:00:10.042Z,101764.88
2023-08-05T02:02:44.780Z,101762.78
2023-08-05T02:05:12.753Z,101772.25
2023-08-05T02:07:39.300Z,101769.13
2023-08-05T02:10:06.330Z,101764.97
2023-08-05T02:12:35.071Z,101762.19
2023-08-05T02:15:01.624Z,101756.66
2023-08-05T02:17:28.201Z,101754.25
2023-08-05T02:19:54.712Z,101759.44
2023-08-05T02:22:21.258Z,101761.06
2023-08-05T02:24:47.792Z,101752.81
2023-08-05T02:27:14.456Z,101754.94
2023-08-05T02:29:41.114Z,101751.72
2023-08-05T02:32:10.525Z,101755.13
2023-08-05T02:34:37.144Z,101751.91
2023-08-05T02:37:03.858Z,101750.94
2023-08-05T02:39:30.360Z,101746.88
2023-08-05T02:41:57.170Z,101742.88
2023-08-05T02:44:23.741Z,101747.09
2023-08-05T02:46:50.875Z,101742.56
2023-08-05T02:49:17.760Z,101749.25
2023-08-05T02:51:44.264Z,101746.16
2023-08-05T02:54:10.809Z,101745.81
2023-08-05T02:56:38.665Z,101747.44
2023-08-05T02:59:05.214Z,101736.38
2023-08-05T03:01:31.887Z,101740.28
2023-08-05T03:03:58.492Z,101743.88
2023-08-05T03:06:24.976Z,101735.56
2023-08-05T03:08:51.898Z,101730.72
2023-08-05T03:11:18.527Z,101731.19
2023-08-05T03:13:45.179Z,101719.00
2023-08-05T03:16:13.350Z,101708.63
2023-08-05T03:18:53.054Z,101706.69
2023-08-05T03:21:20.125Z,101707.47
2023-08-05T03:23:46.697Z,101695.34
2023-08-05T03:26:13.967Z,101691.94
2023-08-05T03:28:41.406Z,101685.63
2023-08-05T03:31:09.043Z,101675.38
2023-08-05T03:33:35.718Z,101671.66
2023-08-05T03:36:03.878Z,101674.63
2023-08-05T03:38:31.376Z,101674.50
2023-08-05T03:41:02.369Z,101666.81
2023-08-05T03:43:29.169Z,101666.56
2023-08-05T03:45:55.774Z,101672.06
2023-08-05T03:48:22.486Z,101671.41
2023-08-05T03:50:50.716Z,101669.09
2023-08-05T03:53:17.424Z,101669.56
2023-08-05T03:55:44.101Z,101670.72
2023-08-05T03:58:12.468Z,101672.66
2023-08-05T04:00:44.084Z,101667.16
2023-08-05T04:03:10.945Z,101663.13
2023-08-05T04:05:37.591Z,101657.59
2023-08-05T04:08:04.636Z,101653.69
2023-08-05T04:10:32.205Z,101658.75
2023-08-05T04:12:58.832Z,101661.03
2023-08-05T04:15:29.004Z,101659.88
2023-08-05T04:18:00.956Z,101651.31
2023-08-05T04:20:31.465Z,101640.75
2023-08-05T04:22:58.124Z,101646.75
2023-08-05T04:25:26.189Z,101642.38
2023-08-05T04:27:52.799Z,101644.00
2023-08-05T04:30:19.366Z,101631.00
2023-08-05T04:32:46.035Z,101628.25
2023-08-05T04:35:12.658Z,101628.91
2023-08-05T04:37:39.200Z,101621.44
2023-08-05T04:40:06.062Z,101619.00
2023-08-05T04:42:32.579Z,101616.09
2023-08-05T04:44:59.414Z,101612.69
2023-08-05T04:47:26.002Z,101613.00
2023-08-05T04:49:52.595Z,101604.06
2023-08-05T04:52:19.169Z,101598.22
2023-08-05T04:54:46.063Z,101609.91
2023-08-05T04:57:13.826Z,101604.25
2023-08-05T04:59:41.145Z,101617.25
2023-08-05T05:02:08.135Z,101611.06
2023-08-05T05:04:34.910Z,101608.28
2023-08-05T05:07:01.503Z,101612.19
2023-08-05T05:09:28.803Z,101603.13
2023-08-05T05:11:55.475Z,101597.91
2023-08-05T05:14:22.622Z,101597.91
2023-08-05T05:16:49.602Z,101604.91
2023-08-05T05:19:16.586Z,101599.41
2023-08-05T05:21:43.289Z,101594.69
2023-08-05T05:24:10.079Z,101597.25
2023-08-05T05:26:38.843Z,101592.88
2023-08-05T05:29:05.645Z,101597.25
2023-08-05T05:31:32.214Z,101589.44
2023-08-05T05:33:58.896Z,101581.66
2023-08-05T05:36:25.512Z,101580.69
2023-08-05T05:38:52.406Z,101586.06
2023-08-05T05:41:19.341Z,101585.41
2023-08-05T05:43:45.868Z,101579.09
2023-08-05T05:46:14.640Z,101571.81
2023-08-05T05:48:42.096Z,101566.28
2023-08-05T05:51:08.738Z,101567.91
2023-08-05T05:53:35.313Z,101570.19
2023-08-05T05:56:01.918Z,101568.03
2023-08-05T05:58:29.089Z,101559.44
2023-08-05T06:00:56.453Z,101562.19
2023-08-05T06:03:23.428Z,101559.25
2023-08-05T06:05:51.880Z,101561.44
2023-08-05T06:08:19.202Z,101551.53
2023-08-05T06:10:46.307Z,101559.63
2023-08-05T06:13:12.863Z,101562.72
2023-08-05T06:15:42.679Z,101555.25
2023-08-05T06:18:10.513Z,101556.66
2023-08-05T06:20:38.005Z,101556.47
2023-08-05T06:23:04.988Z,101563.75
2023-08-05T06:25:31.539Z,101567.78
2023-08-05T06:27:58.667Z,101557.69
2023-08-05T06:30:25.257Z,101560.25
2023-08-05T06:32:52.919Z,101561.97
2023-08-05T06:35:19.893Z,101560.16
2023-08-05T06:37:46.446Z,101560.63
2023-08-05T06:40:13.306Z,101551.81
2023-08-05T06:42:39.771Z,101554.16
2023-08-05T06:45:07.206Z,101548.50
2023-08-05T06:47:33.973Z,101552.34
2023-08-05T06:50:01.361Z,101551.66
2023-08-05T06:52:28.518Z,101554.34
2023-08-05T06:54:56.822Z,101559.09
2023-08-05T06:57:25.717Z,101551.75
2023-08-05T06:59:53.843Z,101537.03
2023-08-05T07:02:20.438Z,101533.22
2023-08-05T07:04:46.945Z,101522.28
2023-08-05T07:07:13.487Z,101537.50
2023-08-05T07:09:40.044Z,101534.97
2023-08-05T07:12:06.897Z,101527.09
2023-08-05T07:14:34.696Z,101524.59
2023-08-05T07:17:01.309Z,101533.97
2023-08-05T07:19:27.863Z,101525.94
2023-08-05T07:21:55.650Z,101522.16
2023-08-05T07:24:22.166Z,101516.25
2023-08-05T07:26:48.722Z,101512.31
2023-08-05T07:29:15.309Z,101511.31
2023-08-05T07:31:41.843Z,101494.28
2023-08-05T07:34:10.553Z,101498.88
2023-08-05T07:36:37.884Z,101498.66
2023-08-05T07:39:08.396Z,101497.78
2023-08-05T07:41:35.093Z,101490.78
2023-08-05T07:44:02.803Z,101492.38
2023-08-05T07:46:33.300Z,101484.84
2023-08-05T07:49:01.373Z,101481.56
2023-08-05T07:51:29.869Z,101486.44
2023-08-05T07:53:58.689Z,101479.81
2023-08-05T07:56:25.487Z,101487.44
2023-08-05T07:58:52.673Z,101487.94
2023-08-05T08:01:23.606Z,101479.03
2023-08-05T08:03:55.444Z,101470.56
2023-08-05T08:06:22.902Z,101471.00
2023-08-05T08:08:49.875Z,101468.53
2023-08-05T08:11:18.707Z,101463.31
2023-08-05T08:13:45.426Z,101466.38
2023-08-05T08:16:12.415Z,101462.16
2023-08-05T08:18:39.033Z,101457.25
2023-08-05T08:21:08.411Z,101451.69
2023-08-05T08:23:35.134Z,101448.56
2023-08-05T08:26:02.498Z,101443.59
2023-08-05T08:28:29.070Z,101436.38
2023-08-05T08:30:57.169Z,101434.66
2023-08-05T08:33:30.230Z,101432.69
2023-08-05T08:35:56.787Z,101429.28
2023-08-05T08:38:23.994Z,101435.69
2023-08-05T08:40:52.748Z,101426.84
2023-08-05T08:43:22.537Z,101426.94
2023-08-05T08:45:52.488Z,101422.41
2023-08-05T08:48:22.402Z,101408.69
2023-08-05T08:50:53.584Z,101404.41
2023-08-05T08:53:21.094Z,101407.66
2023-08-05T08:55:47.764Z,101390.66
2023-08-05T08:58:14.379Z,101384.28
2023-08-05T09:00:41.267Z,101384.69
2023-08-05T09:03:08.124Z,101384.84
2023-08-05T09:05:49.496Z,101383.41
2023-08-05T09:08:16.301Z,101377.22
2023-08-05T09:10:44.929Z,101384.13
2023-08-05T09:13:12.105Z,101367.78
2023-08-05T09:15:40.011Z,101365.47
2023-08-05T09:18:09.084Z,101370.31
2023-08-05T09:20:37.154Z,101363.75
2023-08-05T09:23:12.878Z,101363.53
2023-08-05T09:25:41.990Z,101364.03
2023-08-05T09:28:09.327Z,101355.28
2023-08-05T09:30:36.410Z,101354.47
2023-08-05T09:33:03.747Z,101351.88
2023-08-05T09:35:30.666Z,101344.25
2023-08-05T09:37:57.381Z,101352.59
2023-08-05T09:40:29.881Z,101336.59
2023-08-05T09:43:00.609Z,101339.88
2023-08-05T09:45:29.481Z,101338.66
2023-08-05T09:48:09.040Z,101334.66
2023-08-05T09:50:38.625Z,101329.53
2023-08-05T09:53:17.883Z,101325.84
2023-08-05T09:55:44.984Z,101322.97
2023-08-05T09:58:14.311Z,101322.97
2023-08-05T10:00:42.304Z,101312.69
2023-08-05T10:03:14.509Z,101308.44
2023-08-05T10:05:45.597Z,101303.72
2023-08-05T10:08:17.502Z,101308.44
2023-08-05T10:10:45.441Z,101305.72
2023-08-05T10:13:18.494Z,101303.34
2023-08-05T10:15:50.205Z,101302.88
2023-08-05T10:18:18.840Z,101292.41
2023-08-05T10:20:51.068Z,101279.59
2023-08-05T10:23:17.805Z,101271.97
2023-08-05T10:25:50.278Z,101276.34
2023-08-05T10:28:29.087Z,101273.94
2023-08-05T10:30:56.120Z,101265.97
2023-08-05T10:33:23.613Z,101260.38
2023-08-05T10:35:51.007Z,101249.63
2023-08-05T10:38:24.794Z,101244.50
2023-08-05T10:41:03.380Z,101238.22
2023-08-05T10:43:39.796Z,101235.09
2023-08-05T10:46:06.389Z,101237.09
2023-08-05T10:48:46.699Z,101234.63
2023-08-05T10:51:21.348Z,101223.78
2023-08-05T10:53:56.910Z,101225.75
2023-08-05T10:56:37.552Z,101220.47
2023-08-05T10:59:05.212Z,101208.50
2023-08-05T11:01:57.876Z,101205.28
2023-08-05T11:04:29.704Z,101205.28
2023-08-05T11:06:57.755Z,101208.09
2023-08-05T11:09:24.474Z,101210.47
2023-08-05T11:11:51.217Z,101214.69
2023-08-05T11:14:20.173Z,101228.91
2023-08-05T11:16:50.260Z,101237.41
2023-08-05T11:19:16.865Z,101234.47
2023-08-05T11:21:47.307Z,101239.03
2023-08-05T11:24:21.332Z,101229.91
2023-08-05T11:26:48.581Z,101226.44
2023-08-05T11:29:15.571Z,101217.63
2023-08-05T11:31:52.573Z,101214.03
2023-08-05T11:34:22.438Z,101209.53
2023-08-05T11:37:00.493Z,101207.09
2023-08-05T11:39:27.574Z,101201.34
2023-08-05T11:41:55.297Z,101191.66
2023-08-05T11:44:22.064Z,101199.63
2023-08-05T11:47:00.249Z,101201.28
2023-08-05T11:49:27.937Z,101183.38
2023-08-05T11:51:55.012Z,101176.06
2023-08-05T11:54:39.042Z,101168.84
2023-08-05T11:57:19.812Z,101159.69
2023-08-05T11:59:49.548Z,101147.19
2023-08-05T12:02:18.733Z,101142.09
2023-08-05T12:04:47.055Z,101136.50
2023-08-05T12:07:18.635Z,101147.41
2023-08-05T12:09:46.483Z,101147.28
2023-08-05T12:12:18.173Z,101138.94
2023-08-05T12:14:45.171Z,101143.75
2023-08-05T12:17:11.833Z,101148.84
2023-08-05T12:19:43.068Z,101142.47
2023-08-05T12:22:10.757Z,101136.81
2023-08-05T12:24:49.390Z,101126.94
2023-08-05T12:27:17.045Z,101137.53
2023-08-05T12:29:43.564Z,101143.47
2023-08-05T12:32:12.250Z,101154.66
2023-08-05T12:34:38.802Z,101151.47
2023-08-05T12:37:06.478Z,101146.69
2023-08-05T12:39:33.279Z,101135.41
2023-08-05T12:41:59.800Z,101146.13
2023-08-05T12:44:26.558Z,101149.75
2023-08-05T12:46:53.983Z,101152.97
2023-08-05T12:49:20.557Z,101152.38
2023-08-05T12:51:47.397Z,101145.41
2023-08-05T12:54:13.903Z,101140.38
2023-08-05T12:56:40.479Z,101142.44
2023-08-05T12:59:07.164Z,101121.91
2023-08-05T13:01:33.792Z,101138.41
2023-08-05T13:04:00.552Z,101144.25
2023-08-05T13:06:27.151Z,101140.88
2023-08-05T13:08:53.653Z,101143.03
2023-08-05T13:11:20.206Z,101155.13
2023-08-05T13:13:46.729Z,101155.41
2023-08-05T13:16:13.325Z,101142.78
2023-08-05T13:18:39.850Z,101155.41
2023-08-05T13:21:07.403Z,101157.81
2023-08-05T13:23:33.937Z,101147.44
2023-08-05T13:26:00.487Z,101134.03
2023-08-05T13:28:27.000Z,101134.03
2023-08-05T13:30:53.572Z,101125.28
2023-08-05T13:33:20.530Z,101121.50
2023-08-05T13:35:47.739Z,101117.56
2023-08-05T13:38:14.310Z,101121.75
2023-08-05T13:40:40.819Z,101122.56
2023-08-05T13:43:08.398Z,101113.16
2023-08-05T13:45:35.167Z,101111.97
2023-08-05T13:48:01.712Z,101110.66
2023-08-05T13:50:28.247Z,101101.50
2023-08-05T13:52:54.767Z,101094.72
2023-08-05T13:55:24.352Z,101085.31
2023-08-05T13:57:53.422Z,101081.47
2023-08-05T14:00:20.051Z,101084.91
2023-08-05T14:02:47.812Z,101081.69
2023-08-05T14:05:14.549Z,101080.53
2023-08-05T14:07:41.154Z,101073.00
2023-08-05T14:10:08.300Z,101068.72
2023-08-05T14:12:34.797Z,101068.78
2023-08-05T14:15:01.495Z,101064.03
2023-08-05T14:17:28.093Z,101071.97
2023-08-05T14:19:54.601Z,101068.03
2023-08-05T14:22:21.120Z,101061.00
2023-08-05T14:24:47.638Z,101060.00
2023-08-05T14:27:14.305Z,101056.25
2023-08-05T14:29:40.903Z,101053.16
2023-08-05T14:32:07.825Z,101045.41
2023-08-05T14:34:34.371Z,101046.00
2023-08-05T14:37:00.892Z,101037.94
2023-08-05T14:39:27.596Z,101044.25
2023-08-05T14:41:54.765Z,101039.97
2023-08-05T14:44:23.599Z,101049.41
2023-08-05T14:46:51.666Z,101039.50
2023-08-05T14:49:18.197Z,101039.06
2023-08-05T14:51:44.785Z,101027.81
2023-08-05T14:54:11.657Z,101016.81
2023-08-05T14:56:39.374Z,101022.28
2023-08-05T14:59:06.004Z,101009.94
2023-08-05T15:01:32.668Z,101013.00
2023-08-05T15:04:00.068Z,101009.59
2023-08-05T15:06:27.563Z,101009.50
2023-08-05T15:08:56.770Z,101007.00
2023-08-05T15:11:23.315Z,101000.34
2023-08-05T15:13:49.895Z,101003.56
2023-08-05T15:16:16.700Z,100992.03
2023-08-05T15:18:43.420Z,100993.56
2023-08-05T15:21:10.469Z,100990.22
2023-08-05T15:23:37.022Z,100986.06
2023-08-05T15:26:04.732Z,100988.47
2023-08-05T15:28:32.114Z,100982.16
2023-08-05T15:30:58.652Z,100986.53
2023-08-05T15:33:25.250Z,100977.06
2023-08-05T15:35:52.019Z,100972.66
2023-08-05T15:38:18.679Z,100973.31
2023-08-05T15:40:45.310Z,100959.88
2023-08-05T15:43:13.171Z,100960.59
2023-08-05T15:45:41.504Z,100955.91
2023-08-05T15:48:08.235Z,100956.31
2023-08-05T15:50:34.986Z,100953.22
2023-08-05T15:53:01.747Z,100955.16
2023-08-05T15:55:28.279Z,100939.56
2023-08-05T15:57:54.784Z,100941.53
2023-08-05T16:00:21.380Z,100940.63
2023-08-05T16:02:50.658Z,100925.69
2023-08-05T16:05:17.286Z,100915.72
2023-08-05T16:07:43.893Z,100913.84
2023-08-05T16:10:11.398Z,100912.19
2023-08-05T16:12:38.343Z,100901.78
2023-08-05T16:15:05.713Z,100912.72
2023-08-05T16:17:33.504Z,100914.72
2023-08-05T16:20:04.265Z,100900.19
2023-08-05T16:22:30.828Z,100894.28
2023-08-05T16:24:58.801Z,100894.63
2023-08-05T16:27:25.417Z,100890.75
2023-08-05T16:29:52.654Z,100881.41
2023-08-05T16:32:19.290Z,100881.47
2023-08-05T16:34:45.978Z,100875.25
2023-08-05T16:37:12.490Z,100865.00
2023-08-05T16:39:38.977Z,100869.81
2023-08-05T16:42:06.550Z,100871.66
2023-08-05T16:44:36.195Z,100861.75
2023-08-05T16:47:03.136Z,100860.09
2023-08-05T16:49:29.752Z,100861.50
2023-08-05T16:51:56.757Z,100863.09
2023-08-05T16:54:23.408Z,100863.97
2023-08-05T16:56:52.981Z,100870.69
2023-08-05T16:59:20.500Z,100862.06
2023-08-05T17:01:47.012Z,100856.56
2023-08-05T17:04:16.435Z,100856.94
2023-08-05T17:06:43.268Z,100850.34
2023-08-05T17:09:09.950Z,100851.16
2023-08-05T17:11:37.562Z,100858.31
2023-08-05T17:14:04.153Z,100854.66
2023-08-05T17:16:30.851Z,100862.19
2023-08-05T17:18:57.389Z,100850.50
2023-08-05T17:21:23.959Z,100851.97
2023-08-05T17:23:50.502Z,100843.66
2023-08-05T17:26:16.994Z,100846.25
2023-08-05T17:28:43.489Z,100840.72
2023-08-05T17:31:12.229Z,100840.72
2023-08-05T17:33:38.961Z,100844.22
2023-08-05T17:36:05.720Z,100835.47
2023-08-05T17:38:32.217Z,100833.69
2023-08-05T17:40:59.983Z,100830.78
2023-08-05T17:43:26.583Z,100830.31
2023-08-05T17:45:59.669Z,100837.84
2023-08-05T17:48:26.460Z,100831.06
2023-08-05T17:51:00.507Z,100837.63
2023-08-05T17:53:27.302Z,100830.00
2023-08-05T17:55:54.042Z,100824.22
2023-08-05T17:58:21.250Z,100814.31
2023-08-05T18:00:47.848Z,100822.94
2023-08-05T18:03:14.392Z,100818.63
2023-08-05T18:05:40.992Z,100810.31
2023-08-05T18:08:07.626Z,100809.53
2023-08-05T18:10:34.222Z,100804.59
2023-08-05T18:13:01.057Z,100812.44
2023-08-05T18:15:27.606Z,100799.34
2023-08-05T18:17:54.236Z,100806.03
2023-08-05T18:20:21.842Z,100802.09
2023-08-05T18:22:49.413Z,100802.09
2023-08-05T18:25:16.155Z,100807.13
2023-08-05T18:27:42.745Z,100794.53
2023-08-05T18:30:09.792Z,100796.50
2023-08-05T18:32:37.424Z,100800.34
2023-08-05T18:35:08.513Z,100788.41
2023-08-05T18:37:35.376Z,100790.75
2023-08-05T18:40:02.082Z,100793.84
2023-08-05T18:42:28.566Z,100792.09
2023-08-05T18:44:55.308Z,100792.94
2023-08-05T18:47:21.983Z,100791.34
2023-08-05T18:49:48.679Z,100788.47
2023-08-05T18:52:16.084Z,100789.81
2023-08-05T18:54:44.350Z,100790.53
2023-08-05T18:57:11.077Z,100782.16
2023-08-05T18:59:37.709Z,100775.41
2023-08-05T19:02:04.673Z,100773.28
2023-08-05T19:04:31.219Z,100768.47
2023-08-05T19:06:57.853Z,100773.59
2023-08-05T19:09:24.464Z,100774.28
2023-08-05T19:11:51.623Z,100765.53
2023-08-05T19:14:19.586Z,100768.50
2023-08-05T19:16:46.116Z,100764.94
2023-08-05T19:19:12.694Z,100759.75
2023-08-05T19:21:39.770Z,100752.28
2023-08-05T19:24:06.358Z,100756.47
2023-08-05T19:26:32.915Z,100758.06
2023-08-05T19:28:59.527Z,100754.00
2023-08-05T19:31:26.150Z,100751.66
2023-08-05T19:33:53.317Z,100754.16
2023-08-05T19:36:20.551Z,100747.75
2023-08-05T19:38:50.085Z,100753.28
2023-08-05T19:41:17.175Z,100746.84
2023-08-05T19:43:44.051Z,100744.91
2023-08-05T19:46:13.358Z,100744.81
2023-08-05T19:48:40.972Z,100743.66
2023-08-05T19:53:37.340Z,100742.44
2023-08-05T19:56:04.247Z,100733.34
2023-08-05T19:58:30.969Z,100740.03
2023-08-05T20:00:58.541Z,100737.69
2023-08-05T20:03:25.670Z,100735.31
2023-08-05T20:05:53.697Z,100732.47
2023-08-05T20:08:22.182Z,100732.91
2023-08-05T20:10:48.819Z,100736.84
2023-08-05T20:13:15.965Z,100733.63
2023-08-05T20:15:42.829Z,100727.66
2023-08-05T20:18:09.447Z,100720.53
2023-08-05T20:20:35.958Z,100728.38
2023-08-05T20:23:02.415Z,100715.38
2023-08-05T20:25:29.104Z,100719.72
2023-08-05T20:27:55.904Z,100719.72
2023-08-05T20:30:22.497Z,100721.25
2023-08-05T20:32:49.333Z,100713.31
2023-08-05T20:35:16.361Z,100712.97
2023-08-05T20:37:42.983Z,100705.75
2023-08-05T20:40:09.987Z,100708.50
2023-08-05T20:42:36.506Z,100718.22
2023-08-05T20:45:04.329Z,100710.75
2023-08-05T20:47:31.008Z,100712.69
2023-08-05T20:49:57.656Z,100707.25
2023-08-05T20:52:25.094Z,100709.22
2023-08-05T20:54:51.833Z,100715.63
2023-08-05T20:57:18.546Z,100710.91
2023-08-05T20:59:45.305Z,100705.75
2023-08-05T21:02:12.118Z,100707.00
2023-08-05T21:04:38.657Z,100703.88
2023-08-05T21:07:06.115Z,100697.91
2023-08-05T21:09:32.693Z,100690.69
2023-08-05T21:11:59.504Z,100695.06
2023-08-05T21:14:26.016Z,100690.88
2023-08-05T21:16:52.827Z,100685.34
2023-08-05T21:19:20.527Z,100693.63
2023-08-05T21:21:47.397Z,100684.97
2023-08-05T21:24:13.974Z,100682.31
2023-08-05T21:26:40.550Z,100681.22
2023-08-05T21:29:07.858Z,100680.78
2023-08-05T21:31:34.675Z,100676.25
2023-08-05T21:34:01.412Z,100684.09
2023-08-05T21:36:28.060Z,100678.50
2023-08-05T21:38:55.761Z,100674.13
2023-08-05T21:41:22.325Z,100669.75
2023-08-05T21:43:49.377Z,100666.13
2023-08-05T21:46:15.986Z,100676.00
2023-08-05T21:48:42.528Z,100662.19
2023-08-05T21:51:09.177Z,100666.13
2023-08-05T21:53:35.704Z,100663.72
2023-08-05T21:56:02.299Z,100658.53
2023-08-05T21:58:28.869Z,100657.31
2023-08-05T22:00:56.205Z,100656.50
2023-08-05T22:03:23.946Z,100661.59
2023-08-05T22:05:51.469Z,100654.50
2023-08-05T22:08:18.069Z,100658.41
2023-08-05T22:10:44.605Z,100647.38
2023-08-05T22:13:13.612Z,100649.78
2023-08-05T22:15:40.202Z,100644.59
2023-08-05T22:18:09.219Z,100637.47
2023-08-05T22:20:35.799Z,100634.72
2023-08-05T22:23:02.335Z,100636.59
2023-08-05T22:25:28.820Z,100633.41
2023-08-05T22:27:56.667Z,100629.47
2023-08-05T22:30:23.227Z,100624.75
2023-08-05T22:32:52.271Z,100627.16
2023-08-05T22:35:18.875Z,100620.38
2023-08-05T22:37:45.389Z,100618.00
2023-08-05T22:40:12.553Z,100619.16
2023-08-05T22:42:39.354Z,100616.81
2023-08-05T22:45:07.105Z,100616.81
2023-08-05T22:47:33.622Z,100615.66
2023-08-05T22:50:04.293Z,100610.16
2023-08-05T22:52:31.122Z,100610.59
2023-08-05T22:54:57.787Z,100605.50
2023-08-05T22:57:24.267Z,100598.38
2023-08-05T22:59:53.746Z,100607.81
2023-08-05T23:02:20.526Z,100594.38
2023-08-05T23:04:47.282Z,100596.97
2023-08-05T23:07:14.184Z,100587.63
2023-08-05T23:09:40.762Z,100591.09
2023-08-05T23:12:07.968Z,100591.47
2023-08-05T23:14:34.614Z,100587.53
2023-08-05T23:17:01.160Z,100587.91
2023-08-05T23:22:10.716Z,100582.28
2023-08-05T23:27:30.819Z,100588.00
2023-08-05T23:29:57.388Z,100574.94
2023-08-05T23:32:23.964Z,100578.94
2023-08-05T23:34:50.622Z,100578.13
2023-08-05T23:37:17.280Z,100580.09
2023-08-05T23:39:43.965Z,100579.16
2023-08-05T23:42:10.980Z,100570.88
2023-08-05T23:44:37.602Z,100573.63
2023-08-05T23:47:06.464Z,100572.03
2023-08-05T23:49:33.400Z,100568.09
2023-08-05T23:51:59.970Z,100572.75
2023-08-05T23:54:26.517Z,100570.78
2023-08-05T23:56:52.987Z,100577.53
2023-08-05T23:59:23.431Z,100579.41
